Time;durP1;ratioP1;P1;durP2;ratioP2;P2;SDS_P1;SDS_P2;PMS_P1;PMS_P2;Temp;Humidity;BMP_temperature;BMP_pressure;BME280_temperature;BME280_humidity;BME280_pressure;Samples;Min_cycle;Max_cycle;Signal;HPM_P1;HPM_P2
2020/12/13 00:01:54;;;;;;;22.05;8.88;;;;;;;6.39;78.50;99566.72;4381499;32;20122;-90
2020/12/13 00:04:20;;;;;;;20.52;8.20;;;;;;;6.37;77.80;99571.94;4383823;32;20070;-90
2020/12/13 00:06:45;;;;;;;21.23;8.88;;;;;;;6.43;78.66;99590.53;4392956;32;20038;-90
2020/12/13 00:09:11;;;;;;;18.08;8.98;;;;;;;6.40;78.61;99587.84;4376872;32;20069;-90
2020/12/13 00:11:37;;;;;;;17.33;8.23;;;;;;;6.32;78.71;99572.50;4388403;32;20031;-90
2020/12/13 00:14:03;;;;;;;19.98;9.27;;;;;;;6.32;78.68;99583.66;4394708;32;20068;-92
2020/12/13 00:16:29;;;;;;;23.40;9.85;;;;;;;6.39;78.20;99581.47;4394100;32;20080;-90
2020/12/13 00:18:55;;;;;;;26.20;8.68;;;;;;;6.29;77.97;99571.34;4394537;32;20090;-91
2020/12/13 00:21:26;;;;;;;19.85;8.20;;;;;;;6.18;78.36;99562.47;4391458;32;20069;-90
2020/12/13 00:23:53;;;;;;;18.45;8.48;;;;;;;6.26;78.53;99588.22;4389928;32;20110;-90
2020/12/13 00:26:19;;;;;;;20.62;8.95;;;;;;;6.12;78.77;99580.97;4392983;32;20076;-89
2020/12/13 00:28:45;;;;;;;18.77;8.65;;;;;;;6.16;78.72;99589.25;4390586;32;20034;-89
2020/12/13 00:31:15;;;;;;;24.85;9.60;;;;;;;6.18;78.60;99598.78;4391912;32;20078;-90
2020/12/13 00:33:42;;;;;;;21.55;9.40;;;;;;;6.25;78.50;99600.59;4432633;27;20054;-74
2020/12/13 00:36:09;;;;;;;23.17;9.15;;;;;;;6.20;78.52;99595.53;4402861;32;20103;-76
2020/12/13 00:38:34;;;;;;;21.87;8.65;;;;;;;6.11;78.68;99585.75;4399039;32;20091;-74
2020/12/13 00:41:00;;;;;;;20.85;9.02;;;;;;;6.12;78.73;99581.75;4401956;32;20057;-77
2020/12/13 00:43:26;;;;;;;27.75;9.80;;;;;;;6.08;78.94;99592.22;4404021;32;20387;-75
2020/12/13 00:45:52;;;;;;;19.05;9.27;;;;;;;6.09;78.79;99582.63;4408793;32;20030;-77
2020/12/13 00:48:18;;;;;;;20.80;8.98;;;;;;;6.08;78.44;99574.69;4405539;32;20188;-76
2020/12/13 00:50:43;;;;;;;25.37;8.82;;;;;;;6.05;78.30;99569.97;4405803;32;20142;-75
2020/12/13 00:53:09;;;;;;;19.77;8.88;;;;;;;6.00;78.50;99579.66;4404908;32;20112;-77
2020/12/13 00:55:35;;;;;;;27.02;10.60;;;;;;;5.99;78.76;99577.31;4390379;32;20030;-77
2020/12/13 00:58:00;;;;;;;24.92;9.55;;;;;;;6.01;78.93;99578.44;4403338;32;20151;-77
2020/12/13 01:00:27;;;;;;;25.30;9.32;;;;;;;5.98;79.18;99573.72;4392380;32;20560;-74
2020/12/13 01:02:57;;;;;;;29.15;10.63;;;;;;;6.00;78.60;99571.28;4404076;32;20033;-73
2020/12/13 01:05:24;;;;;;;18.60;9.65;;;;;;;5.92;78.78;99566.28;4401261;32;20083;-74
2020/12/13 01:07:50;;;;;;;25.45;10.13;;;;;;;5.90;79.11;99571.53;4407154;32;20072;-74
2020/12/13 01:10:18;;;;;;;22.08;11.02;;;;;;;5.84;79.18;99567.69;4404107;32;20065;-73
2020/12/13 01:12:44;;;;;;;22.95;10.98;;;;;;;5.80;79.32;99566.97;4402728;32;20104;-74
2020/12/13 01:15:10;;;;;;;22.77;10.38;;;;;;;5.84;79.20;99567.69;4406811;32;20080;-75
2020/12/13 01:17:36;;;;;;;21.35;9.93;;;;;;;5.76;79.10;99567.03;4404088;32;20061;-78
2020/12/13 01:20:03;;;;;;;25.33;10.70;;;;;;;5.73;79.07;99575.47;4406880;32;20131;-76
2020/12/13 01:22:29;;;;;;;29.15;10.05;;;;;;;5.68;78.75;99582.37;4408859;32;21296;-76
2020/12/13 01:24:55;;;;;;;25.90;10.05;;;;;;;5.69;78.85;99583.16;4404575;32;20340;-75
2020/12/13 01:27:20;;;;;;;24.27;9.98;;;;;;;5.70;78.90;99585.53;4405609;32;20050;-76
2020/12/13 01:29:46;;;;;;;21.30;9.65;;;;;;;5.65;78.82;99583.22;4405913;32;20042;-76
2020/12/13 01:32:12;;;;;;;24.02;9.55;;;;;;;5.60;79.03;99580.97;4409834;32;20133;-76
2020/12/13 01:34:37;;;;;;;28.00;9.63;;;;;;;5.57;79.32;99589.41;4402866;32;20068;-76
2020/12/13 01:37:03;;;;;;;24.95;9.70;;;;;;;5.56;79.13;99583.03;4408446;32;20114;-75
2020/12/13 01:39:29;;;;;;;23.40;9.35;;;;;;;5.51;79.02;99600.31;4403095;32;20324;-75
2020/12/13 01:41:57;;;;;;;21.83;9.68;;;;;;;5.50;78.89;99595.16;4404209;32;20430;-74
2020/12/13 01:44:29;;;;;;;18.42;8.70;;;;;;;5.51;78.96;99594.72;4403343;32;20434;-74
2020/12/13 01:46:55;;;;;;;20.08;9.45;;;;;;;5.54;78.72;99602.22;4404302;32;20072;-74
2020/12/13 01:49:21;;;;;;;22.92;9.43;;;;;;;5.49;78.83;99596.37;4405915;32;20540;-75
2020/12/13 01:52:05;;;;;;;22.55;9.38;;;;;;;5.47;79.15;99596.81;4407552;32;20139;-76
2020/12/13 01:54:33;;;;;;;30.75;10.77;;;;;;;5.43;79.28;99604.44;4403102;32;20076;-77
2020/12/13 01:57:01;;;;;;;23.27;9.68;;;;;;;5.39;79.32;99595.38;4408134;32;20034;-77
2020/12/13 01:59:30;;;;;;;22.33;9.60;;;;;;;5.38;79.56;99590.22;4406816;32;20094;-75
2020/12/13 02:02:04;;;;;;;23.33;10.70;;;;;;;5.37;79.56;99589.44;4403010;32;20522;-76
2020/12/13 02:04:34;;;;;;;27.95;10.52;;;;;;;5.43;78.61;99592.53;4405412;32;20045;-76
2020/12/13 02:07:02;;;;;;;22.10;10.32;;;;;;;5.42;78.90;99580.56;4401516;32;20093;-75
2020/12/13 02:09:28;;;;;;;24.12;10.35;;;;;;;5.40;78.87;99585.03;4401360;32;20050;-77
2020/12/13 02:11:54;;;;;;;25.00;10.43;;;;;;;5.38;78.42;99591.03;4406962;32;20026;-77
2020/12/13 02:14:20;;;;;;;24.83;10.73;;;;;;;5.35;78.61;99594.69;4388986;32;20092;-74
2020/12/13 02:16:48;;;;;;;22.33;10.25;;;;;;;5.30;79.03;99597.97;4401732;32;20103;-75
2020/12/13 02:19:17;;;;;;;27.35;10.77;;;;;;;5.30;79.01;99594.38;4402654;32;20099;-74
2020/12/13 02:21:46;;;;;;;23.38;11.05;;;;;;;5.26;78.64;99599.25;4405939;32;20072;-77
2020/12/13 02:24:13;;;;;;;28.23;10.43;;;;;;;5.27;78.74;99600.81;4391286;32;20081;-74
2020/12/13 02:26:40;;;;;;;20.27;9.60;;;;;;;5.25;78.24;99597.69;4402893;32;20034;-77
2020/12/13 02:29:06;;;;;;;23.60;10.13;;;;;;;5.19;78.50;99597.37;4405740;32;20464;-76
2020/12/13 02:31:32;;;;;;;23.02;10.23;;;;;;;5.23;77.86;99589.75;4400330;32;20054;-74
2020/12/13 02:33:57;;;;;;;22.65;10.13;;;;;;;5.11;78.64;99595.97;4402210;32;20135;-76
2020/12/13 02:36:23;;;;;;;22.25;9.77;;;;;;;5.00;79.21;99592.59;4405096;32;20524;-76
2020/12/13 02:38:49;;;;;;;25.12;10.15;;;;;;;5.05;79.08;99600.47;4408292;32;20103;-72
2020/12/13 02:41:14;;;;;;;25.40;9.43;;;;;;;5.06;78.64;99599.25;4388939;32;20108;-76
2020/12/13 02:43:40;;;;;;;21.77;10.07;;;;;;;4.98;79.08;99595.06;4406163;32;20112;-76
2020/12/13 02:46:06;;;;;;;21.75;10.65;;;;;;;5.04;79.44;99596.13;4404606;32;20454;-75
2020/12/13 02:48:31;;;;;;;27.67;11.10;;;;;;;5.07;79.17;99595.28;4405004;32;20363;-75
2020/12/13 02:50:57;;;;;;;25.30;9.82;;;;;;;5.12;78.79;99594.75;4405628;32;20073;-77
2020/12/13 02:53:23;;;;;;;30.23;11.02;;;;;;;5.08;78.68;99596.03;4403319;32;20179;-77
2020/12/13 02:55:48;;;;;;;28.25;12.05;;;;;;;5.02;78.45;99592.97;4402569;32;20140;-75
2020/12/13 02:58:14;;;;;;;23.30;10.57;;;;;;;4.98;79.16;99589.47;4406500;32;20146;-74
2020/12/13 03:00:40;;;;;;;27.02;10.13;;;;;;;5.07;78.64;99580.53;4404184;32;20086;-75
2020/12/13 03:03:05;;;;;;;22.77;10.20;;;;;;;5.02;78.65;99579.03;4402129;32;20082;-75
2020/12/13 03:05:31;;;;;;;24.25;9.43;;;;;;;5.04;78.52;99581.41;4404507;32;20084;-73
2020/12/13 03:07:58;;;;;;;20.62;9.98;;;;;;;4.87;78.01;99582.53;4402826;32;20501;-75
2020/12/13 03:10:24;;;;;;;19.33;10.18;;;;;;;4.86;78.42;99575.38;4406216;32;21182;-77
2020/12/13 03:12:49;;;;;;;18.42;9.45;;;;;;;4.81;78.56;99582.25;4403405;32;20045;-76
2020/12/13 03:15:15;;;;;;;27.98;13.55;;;;;;;4.74;78.74;99582.37;4405814;32;20073;-74
2020/12/13 03:17:41;;;;;;;27.87;11.52;;;;;;;4.83;79.45;99568.69;4405032;32;20417;-74
2020/12/13 03:20:07;;;;;;;26.17;11.90;;;;;;;4.85;79.46;99566.22;4403188;32;20062;-76
2020/12/13 03:22:33;;;;;;;26.50;10.55;;;;;;;4.80;79.22;99563.94;4405697;32;20061;-77
2020/12/13 03:24:58;;;;;;;26.25;10.80;;;;;;;4.81;78.97;99557.16;4403804;32;21370;-76
2020/12/13 03:27:25;;;;;;;32.78;13.52;;;;;;;4.84;78.62;99550.72;4390295;32;20078;-76
2020/12/13 03:29:51;;;;;;;28.25;12.18;;;;;;;4.80;78.50;99538.88;4403527;32;20728;-74
2020/12/13 03:32:18;;;;;;;60.83;27.92;;;;;;;4.80;78.67;99544.44;4402521;32;20073;-77
2020/12/13 03:34:43;;;;;;;65.62;30.23;;;;;;;4.78;78.70;99540.50;4402681;32;20090;-72
2020/12/13 03:37:09;;;;;;;28.75;10.73;;;;;;;4.77;78.92;99538.94;4404179;32;20045;-77
2020/12/13 03:39:34;;;;;;;38.90;15.88;;;;;;;4.74;78.84;99532.22;4400503;32;20093;-72
2020/12/13 03:42:00;;;;;;;29.37;11.10;;;;;;;4.79;78.95;99530.94;4407711;32;20085;-74
2020/12/13 03:44:26;;;;;;;31.37;14.85;;;;;;;4.83;78.86;99526.06;4403035;32;20053;-73
2020/12/13 03:46:51;;;;;;;75.75;31.50;;;;;;;4.86;78.57;99514.88;4403254;32;20050;-72
2020/12/13 03:49:17;;;;;;;83.47;34.30;;;;;;;4.89;78.16;99519.56;4402062;32;20067;-73
2020/12/13 03:51:43;;;;;;;40.78;21.45;;;;;;;4.78;78.71;99515.41;4401737;32;20099;-76
2020/12/13 03:54:09;;;;;;;69.43;28.23;;;;;;;4.85;78.93;99523.66;4407780;32;20037;-75
2020/12/13 03:56:34;;;;;;;19.05;9.25;;;;;;;4.99;78.26;99512.19;4403505;32;20144;-73
2020/12/13 03:59:00;;;;;;;17.52;7.68;;;;;;;5.03;78.05;99516.47;4401493;32;20060;-74
2020/12/13 04:01:26;;;;;;;19.50;9.00;;;;;;;5.11;77.97;99503.97;4405579;32;20112;-76
2020/12/13 04:03:51;;;;;;;30.48;9.07;;;;;;;5.14;78.02;99505.09;4403420;32;20324;-73
2020/12/13 04:06:17;;;;;;;16.73;8.00;;;;;;;5.16;78.02;99511.81;4402075;32;20541;-74
2020/12/13 04:08:43;;;;;;;18.92;7.25;;;;;;;5.16;78.00;99495.06;4404250;32;20054;-74
2020/12/13 04:11:08;;;;;;;17.40;6.68;;;;;;;5.23;78.16;99506.09;4402440;32;20093;-74
2020/12/13 04:13:34;;;;;;;19.77;7.12;;;;;;;5.23;78.25;99508.88;4407992;32;20100;-73
2020/12/13 04:16:00;;;;;;;16.42;6.47;;;;;;;5.29;78.38;99498.78;4407291;32;20053;-73
2020/12/13 04:18:26;;;;;;;21.55;8.82;;;;;;;5.32;78.37;99503.50;4401845;32;20074;-72
2020/12/13 04:20:51;;;;;;;26.05;11.45;;;;;;;5.46;77.92;99507.97;4407791;32;20072;-75
2020/12/13 04:23:17;;;;;;;23.05;9.55;;;;;;;5.51;77.66;99504.66;4406191;32;20129;-72
2020/12/13 04:25:43;;;;;;;19.83;6.47;;;;;;;5.53;77.94;99500.19;4404100;32;20496;-72
2020/12/13 04:28:08;;;;;;;16.77;6.75;;;;;;;5.55;77.75;99494.19;4400827;32;20077;-72
2020/12/13 04:30:34;;;;;;;17.58;7.15;;;;;;;5.57;77.65;99486.16;4400653;32;20076;-73
2020/12/13 04:32:59;;;;;;;17.50;7.20;;;;;;;5.58;77.93;99480.16;4404895;32;20128;-72
2020/12/13 04:35:25;;;;;;;18.70;6.90;;;;;;;5.58;77.84;99477.38;4404083;32;20378;-73
2020/12/13 04:37:51;;;;;;;17.67;6.18;;;;;;;5.63;78.02;99482.44;4401519;32;20121;-72
2020/12/13 04:40:16;;;;;;;17.80;6.62;;;;;;;5.69;77.79;99483.47;4402376;32;20077;-75
2020/12/13 04:42:42;;;;;;;18.77;6.60;;;;;;;5.70;78.33;99478.66;4404865;32;20124;-74
2020/12/13 04:45:09;;;;;;;18.95;6.30;;;;;;;5.78;78.38;99483.66;4402213;32;20398;-72
2020/12/13 04:47:45;;;;;;;16.52;6.28;;;;;;;5.84;77.98;99487.53;4404101;32;20045;-72
2020/12/13 04:50:11;;;;;;;16.75;6.53;;;;;;;5.92;77.42;99480.53;4401558;32;20041;-76
2020/12/13 04:52:39;;;;;;;17.27;6.90;;;;;;;5.76;76.85;99483.31;4410189;32;20045;-74
2020/12/13 04:55:05;;;;;;;18.37;6.70;;;;;;;5.83;77.70;99476.78;4392574;32;20090;-73
2020/12/13 04:57:30;;;;;;;17.80;6.10;;;;;;;5.89;77.76;99489.78;4407130;32;20108;-73
2020/12/13 04:59:59;;;;;;;16.87;6.80;;;;;;;5.97;77.58;99493.19;4392544;32;20064;-73
2020/12/13 05:02:24;;;;;;;11.48;5.60;;;;;;;6.08;76.94;99488.13;4404893;32;20085;-74
2020/12/13 05:04:52;;;;;;;18.62;6.47;;;;;;;6.14;76.78;99480.78;4405259;32;20104;-73
2020/12/13 05:07:20;;;;;;;12.90;5.37;;;;;;;6.16;76.44;99475.50;4407961;32;20125;-72
2020/12/13 05:09:51;;;;;;;16.65;6.07;;;;;;;6.21;76.47;99482.56;4406604;32;20059;-71
2020/12/13 05:12:16;;;;;;;16.48;6.00;;;;;;;6.30;76.69;99479.94;4404899;32;20041;-76
2020/12/13 05:14:47;;;;;;;16.05;5.60;;;;;;;6.33;76.09;99477.06;4407058;32;20069;-74
2020/12/13 05:17:13;;;;;;;17.65;6.05;;;;;;;6.37;75.79;99468.56;4405938;32;20320;-72
2020/12/13 05:19:41;;;;;;;14.20;5.62;;;;;;;6.43;75.89;99461.22;4406877;32;20037;-74
2020/12/13 05:22:08;;;;;;;20.23;5.03;;;;;;;6.50;75.66;99463.84;4403411;32;20109;-73
2020/12/13 05:24:35;;;;;;;17.15;5.95;;;;;;;6.53;75.25;99451.78;4406874;32;20045;-73
2020/12/13 05:27:04;;;;;;;14.32;5.40;;;;;;;6.48;75.58;99455.09;4404952;32;20081;-74
2020/12/13 05:29:31;;;;;;;15.68;6.20;;;;;;;6.52;75.89;99448.19;4405874;32;20302;-73
2020/12/13 05:32:15;;;;;;;13.30;5.72;;;;;;;6.60;75.94;99449.53;4403785;32;20092;-75
2020/12/13 05:34:43;;;;;;;18.98;6.57;;;;;;;6.74;75.37;99445.53;4406272;32;20089;-72
2020/12/13 05:37:14;;;;;;;17.98;5.72;;;;;;;6.77;74.89;99437.06;4403100;32;20081;-75
2020/12/13 05:53:15;;;;;;;18.73;7.57;;;;;;;7.22;72.93;99439.69;3983486;32;15027947;-75
2020/12/13 05:55:43;;;;;;;22.33;7.95;;;;;;;7.22;72.93;99439.69;4430260;32;20369;-71
2020/12/13 05:58:08;;;;;;;19.52;7.68;;;;;;;6.87;74.06;99438.00;4435935;32;20123;-74
2020/12/13 06:00:35;;;;;;;21.80;8.15;;;;;;;6.83;73.99;99438.09;4433769;32;20045;-73
2020/12/13 06:03:04;;;;;;;20.75;7.60;;;;;;;6.74;73.96;99439.97;4433653;32;20113;-74
2020/12/13 06:05:34;;;;;;;19.08;7.50;;;;;;;6.78;74.28;99438.63;4432435;32;20091;-76
2020/12/13 06:08:03;;;;;;;18.92;6.45;;;;;;;6.75;74.01;99438.75;4437815;32;20046;-75
2020/12/13 06:10:33;;;;;;;16.33;6.65;;;;;;;6.75;73.95;99444.34;4434979;32;20530;-76
2020/12/13 06:13:02;;;;;;;15.70;6.78;;;;;;;6.81;74.01;99431.38;4434280;32;20065;-74
2020/12/13 06:15:29;;;;;;;17.15;7.40;;;;;;;6.77;74.58;99416.72;4433605;32;20080;-76
2020/12/13 06:17:55;;;;;;;18.42;7.05;;;;;;;6.82;74.78;99424.56;4433742;32;20085;-74
2020/12/13 06:20:21;;;;;;;16.90;6.82;;;;;;;6.95;74.39;99428.94;4436071;32;20438;-76
2020/12/13 06:22:50;;;;;;;15.50;7.18;;;;;;;7.03;74.36;99421.13;4434090;32;20041;-75
2020/12/13 06:25:16;;;;;;;17.77;7.32;;;;;;;7.08;74.03;99420.53;4431669;32;20105;-77
2020/12/13 06:27:42;;;;;;;20.65;7.20;;;;;;;7.12;73.90;99424.78;4434772;32;20069;-76
2020/12/13 06:30:09;;;;;;;21.10;7.07;;;;;;;7.06;73.90;99423.03;4433148;32;20453;-73
2020/12/13 06:32:39;;;;;;;18.52;6.90;;;;;;;7.05;74.38;99410.25;4435040;32;20091;-73
2020/12/13 06:35:05;;;;;;;18.37;6.65;;;;;;;7.08;74.82;99400.97;4419235;32;20595;-74
2020/12/13 06:37:30;;;;;;;13.62;6.90;;;;;;;7.08;75.47;99395.38;4419686;32;20023;-74
2020/12/13 06:39:56;;;;;;;18.12;7.00;;;;;;;7.07;74.72;99396.59;4417525;32;20117;-74
2020/12/13 06:42:25;;;;;;;14.77;6.80;;;;;;;6.99;74.69;99401.63;4419197;32;20069;-75
2020/12/13 06:45:09;;;;;;;14.05;6.90;;;;;;;7.04;75.14;99403.88;4417350;32;20028;-74
2020/12/13 06:47:39;;;;;;;15.65;6.32;;;;;;;7.04;75.63;99394.72;4415681;32;20425;-74
2020/12/13 06:50:04;;;;;;;19.23;7.70;;;;;;;7.05;75.87;99399.84;4419976;32;20096;-73
2020/12/13 06:52:33;;;;;;;11.50;6.47;;;;;;;7.12;75.90;99396.81;4419542;32;20054;-74
2020/12/13 06:55:05;;;;;;;15.30;6.32;;;;;;;7.11;75.41;99402.88;4419055;32;20470;-75
2020/12/13 06:57:32;;;;;;;16.45;6.15;;;;;;;7.10;75.32;99399.31;4418734;32;21242;-73
2020/12/13 07:00:03;;;;;;;17.90;6.40;;;;;;;7.11;75.52;99397.28;4419179;32;20039;-75
2020/12/13 07:05:20;;;;;;;23.02;7.28;;;;;;;7.58;74.75;99398.16;3984570;32;15022496;-74
2020/12/13 07:07:51;;;;;;;14.75;6.57;;;;;;;7.58;74.75;99398.16;4437804;32;20059;-74
2020/12/13 07:10:17;;;;;;;17.27;6.85;;;;;;;7.20;75.49;99394.59;4438189;32;20073;-73
2020/12/13 07:12:51;;;;;;;20.27;6.62;;;;;;;6.96;75.77;99401.75;4437934;32;21337;-73
2020/12/13 07:15:26;;;;;;;12.23;5.20;;;;;;;6.93;76.24;99409.00;4436761;32;20492;-74
2020/12/13 07:17:52;;;;;;;19.05;6.82;;;;;;;7.04;77.22;99401.09;4438122;32;20611;-76
2020/12/13 07:20:19;;;;;;;19.45;6.95;;;;;;;7.01;76.58;99399.19;4437447;32;20048;-75
2020/12/13 07:22:45;;;;;;;16.08;7.70;;;;;;;7.03;76.72;99401.53;4438894;32;20089;-78
2020/12/13 07:25:10;;;;;;;24.83;9.85;;;;;;;6.97;75.73;99403.31;4438417;32;20040;-75
2020/12/13 07:27:37;;;;;;;23.65;8.80;;;;;;;6.97;75.76;99392.91;4438919;32;20081;-77
2020/12/13 07:30:03;;;;;;;20.98;8.70;;;;;;;7.01;76.22;99382.41;4432407;32;20378;-74
2020/12/13 07:32:29;;;;;;;17.17;8.98;;;;;;;6.95;76.48;99387.00;4437703;32;20407;-76
2020/12/13 07:34:55;;;;;;;18.52;8.25;;;;;;;6.86;76.20;99378.47;4422491;32;20072;-76
2020/12/13 07:37:21;;;;;;;24.75;9.10;;;;;;;6.80;77.07;99368.28;4422872;32;20123;-76
2020/12/13 07:39:46;;;;;;;24.10;10.00;;;;;;;6.78;77.06;99374.31;4422394;32;20384;-72
2020/12/13 07:42:13;;;;;;;27.77;10.82;;;;;;;6.54;76.90;99367.50;4423769;32;20072;-74
2020/12/13 07:44:40;;;;;;;19.55;9.88;;;;;;;6.60;77.66;99360.09;4421478;32;20064;-77
2020/12/13 07:47:06;;;;;;;19.52;10.90;;;;;;;6.67;78.78;99359.13;4423745;32;20475;-74
2020/12/13 07:49:31;;;;;;;20.73;9.38;;;;;;;6.69;78.29;99342.69;4419228;32;20074;-75
2020/12/13 07:51:57;;;;;;;22.85;7.78;;;;;;;6.66;78.27;99347.13;4424513;32;20080;-75
2020/12/13 07:57:11;;;;;;;20.10;7.97;;;;;;;6.95;78.42;99344.25;3984481;32;15026274;-75
2020/12/13 07:59:37;;;;;;;21.65;7.82;;;;;;;6.95;78.42;99344.25;4436688;32;20308;-73
2020/12/13 08:02:05;;;;;;;21.58;7.95;;;;;;;6.41;80.14;99335.16;4437970;32;20104;-75
2020/12/13 08:07:10;;;;;;;15.35;7.03;;;;;;;6.42;80.43;99337.50;3981909;32;15031265;-71
2020/12/13 08:09:42;;;;;;;16.98;6.72;;;;;;;6.22;81.70;99324.97;4439940;32;20077;-74
2020/12/13 08:12:10;;;;;;;20.00;6.37;;;;;;;6.07;82.81;99319.78;4435980;32;21145;-73
2020/12/13 08:14:35;;;;;;;18.70;6.75;;;;;;;6.00;83.12;99303.22;4440486;32;20049;-74
2020/12/13 08:17:01;;;;;;;19.73;6.25;;;;;;;6.09;83.97;99296.97;4441657;32;20600;-75
2020/12/13 08:19:33;;;;;;;17.02;6.45;;;;;;;5.99;84.04;99290.47;4440329;32;20100;-74
2020/12/13 08:22:03;;;;;;;21.15;6.68;;;;;;;5.92;83.55;99275.94;4440077;32;20025;-76
2020/12/13 08:24:30;;;;;;;13.75;6.07;;;;;;;5.74;84.89;99279.19;4443018;32;20037;-76
2020/12/13 08:26:59;;;;;;;20.40;6.35;;;;;;;5.71;84.73;99290.47;4437609;32;20034;-75
2020/12/13 08:29:25;;;;;;;17.08;6.57;;;;;;;5.73;85.08;99283.22;4439003;32;20084;-74
2020/12/13 08:31:53;;;;;;;22.90;7.65;;;;;;;5.78;85.37;99287.47;4439976;32;20049;-75
2020/12/13 08:34:25;;;;;;;20.70;6.35;;;;;;;5.73;85.36;99285.22;4430281;32;20073;-75
2020/12/13 08:36:54;;;;;;;17.55;5.90;;;;;;;5.59;85.96;99286.38;4422348;32;21476;-76
2020/12/13 08:39:37;;;;;;;19.55;7.25;;;;;;;5.56;86.46;99278.13;4423718;32;20096;-75
2020/12/13 08:42:05;;;;;;;18.87;7.78;;;;;;;5.66;86.23;99282.63;4422563;32;20088;-77
2020/12/13 08:44:36;;;;;;;16.85;7.65;;;;;;;5.66;85.76;99277.84;4423968;32;20086;-74
2020/12/13 08:47:05;;;;;;;21.92;8.88;;;;;;;5.63;84.75;99277.94;4425846;32;20489;-75
2020/12/13 08:49:34;;;;;;;24.98;8.50;;;;;;;5.53;84.93;99279.78;4424923;32;20079;-75
2020/12/13 08:54:53;;;;;;;26.90;9.48;;;;;;;5.91;86.59;99264.00;3984356;32;15023839;-73
2020/12/13 08:57:46;;;;;;;27.30;9.38;;;;;;;5.91;86.59;99264.00;4439584;32;20076;-74
2020/12/13 09:00:14;;;;;;;24.10;9.52;;;;;;;5.47;87.51;99253.66;4436952;32;20092;-73
2020/12/13 09:02:53;;;;;;;23.25;9.82;;;;;;;5.56;87.92;99242.62;4444698;32;20061;-77
2020/12/13 09:05:28;;;;;;;28.58;10.55;;;;;;;5.53;88.09;99245.53;4439591;32;20417;-75
2020/12/13 09:07:56;;;;;;;23.30;9.80;;;;;;;5.71;87.94;99246.59;4438340;32;20086;-75
2020/12/13 09:10:22;;;;;;;25.37;10.30;;;;;;;5.72;87.72;99250.97;4435844;32;20461;-76
2020/12/13 09:12:48;;;;;;;24.67;10.38;;;;;;;5.70;87.40;99247.81;4439179;32;20101;-72
2020/12/13 09:15:16;;;;;;;21.40;9.40;;;;;;;5.65;87.53;99242.78;4441326;32;20025;-75
2020/12/13 09:17:52;;;;;;;21.27;8.55;;;;;;;5.45;87.25;99219.03;4438620;32;20047;-74
2020/12/13 09:20:34;;;;;;;21.02;9.00;;;;;;;5.59;87.79;99205.47;4436501;32;20069;-72
2020/12/13 09:25:37;;;;;;;22.63;9.37;;;;;;;6.00;86.43;99197.12;3998748;31;15017947;-75
2020/12/13 09:28:03;;;;;;;24.50;7.87;;;;;;;6.00;86.43;99197.12;4452786;32;20408;-75
2020/12/13 09:30:29;;;;;;;23.73;7.50;;;;;;;5.64;87.54;99188.19;4454307;32;20622;-74
2020/12/13 09:32:55;;;;;;;22.00;7.03;;;;;;;5.84;87.25;99193.63;4452389;32;20353;-73
2020/12/13 09:35:21;;;;;;;20.35;6.07;;;;;;;5.94;86.84;99190.53;4437993;32;20481;-73
2020/12/13 09:37:46;;;;;;;16.80;5.78;;;;;;;6.05;86.21;99196.56;4439203;32;20359;-76
2020/12/13 09:40:12;;;;;;;16.90;6.07;;;;;;;6.06;85.79;99197.34;4437657;32;20022;-72
2020/12/13 09:42:38;;;;;;;17.70;6.15;;;;;;;6.29;85.14;99188.62;4439081;32;20112;-73
2020/12/13 09:45:04;;;;;;;18.50;6.57;;;;;;;6.31;85.14;99188.97;4440479;32;20037;-74
2020/12/13 09:47:30;;;;;;;20.75;5.57;;;;;;;6.40;84.52;99183.50;4437098;32;20084;-76
2020/12/13 09:49:58;;;;;;;16.00;5.47;;;;;;;6.29;84.45;99199.81;4437229;32;20149;-72
2020/12/13 09:52:25;;;;;;;15.93;5.70;;;;;;;6.35;85.35;99197.25;4438037;32;20101;-74
2020/12/13 09:54:51;;;;;;;19.73;6.78;;;;;;;6.28;85.29;99192.66;4441027;32;20492;-73
2020/12/13 09:57:17;;;;;;;22.45;6.30;;;;;;;6.49;85.33;99182.81;4436526;32;20141;-75
2020/12/13 09:59:42;;;;;;;16.05;5.90;;;;;;;6.58;84.92;99180.13;4437680;32;20591;-73
2020/12/13 10:02:08;;;;;;;29.33;7.28;;;;;;;6.66;83.83;99176.63;4438710;32;20063;-73
2020/12/13 10:04:34;;;;;;;21.15;7.03;;;;;;;6.70;83.94;99174.53;4436629;32;20594;-75
2020/12/13 10:09:50;;;;;;;18.33;5.40;;;;;;;7.37;82.29;99166.59;3982451;32;15025932;-73
2020/12/13 10:12:16;;;;;;;16.60;5.97;;;;;;;7.37;82.29;99166.59;4429081;32;20381;-73
2020/12/13 10:14:41;;;;;;;21.37;6.28;;;;;;;7.12;84.05;99164.66;4430930;32;20056;-75
2020/12/13 10:17:07;;;;;;;19.55;5.37;;;;;;;6.98;84.63;99161.59;4432443;32;20108;-72
2020/12/13 10:19:33;;;;;;;20.37;5.32;;;;;;;7.08;85.05;99161.22;4430340;32;20530;-71
2020/12/13 10:21:59;;;;;;;16.55;4.20;;;;;;;7.14;84.65;99158.62;4430995;32;20033;-71
2020/12/13 10:24:25;;;;;;;14.07;3.70;;;;;;;7.16;84.73;99147.75;4430929;32;20145;-72
2020/12/13 10:26:50;;;;;;;15.25;3.78;;;;;;;7.18;85.20;99140.47;4433996;32;20042;-72
2020/12/13 10:29:16;;;;;;;15.73;3.97;;;;;;;7.26;85.28;99130.59;4433036;32;20026;-71
2020/12/13 10:31:42;;;;;;;24.33;4.93;;;;;;;7.28;85.20;99132.94;4432516;32;20071;-71
2020/12/13 10:34:10;;;;;;;16.27;3.67;;;;;;;7.41;85.30;99126.03;4421547;32;20104;-73
2020/12/13 10:36:38;;;;;;;22.10;4.82;;;;;;;7.38;84.80;99112.19;4412729;32;20083;-74
2020/12/13 10:39:05;;;;;;;14.25;4.32;;;;;;;7.39;85.23;99102.53;4413104;32;20038;-73
2020/12/13 10:41:32;;;;;;;13.30;3.95;;;;;;;7.28;85.96;99121.75;4419263;32;20123;-74
2020/12/13 10:43:59;;;;;;;12.77;4.05;;;;;;;7.20;86.60;99107.25;4415534;32;20460;-72
2020/12/13 10:46:24;;;;;;;10.90;2.97;;;;;;;7.35;86.42;99088.69;4415116;32;20088;-74
2020/12/13 10:48:50;;;;;;;13.80;3.55;;;;;;;7.32;86.90;99083.22;4413420;32;20030;-73
2020/12/13 10:51:17;;;;;;;14.80;3.83;;;;;;;7.04;88.10;99073.06;4419457;32;20041;-74
2020/12/13 10:53:44;;;;;;;16.42;3.62;;;;;;;7.26;88.44;99074.62;4416415;32;20104;-73
2020/12/13 10:56:10;;;;;;;21.48;4.53;;;;;;;7.40;87.21;99060.09;4414689;32;20077;-73
2020/12/13 10:58:39;;;;;;;8.07;2.83;;;;;;;7.42;87.44;99066.03;4414551;32;20073;-71
2020/12/13 11:01:05;;;;;;;13.65;3.08;;;;;;;7.57;87.31;99066.25;4413497;32;20037;-75
2020/12/13 11:03:31;;;;;;;8.50;2.60;;;;;;;7.50;86.95;99050.53;4414191;32;20496;-72
2020/12/13 11:05:57;;;;;;;11.52;2.90;;;;;;;7.33;88.00;99040.78;4417406;32;20434;-71
2020/12/13 11:08:23;;;;;;;10.57;3.17;;;;;;;7.30;88.55;99024.16;4419525;32;20378;-72
2020/12/13 11:10:49;;;;;;;10.88;3.00;;;;;;;7.43;88.43;99025.59;4413159;32;21493;-74
2020/12/13 11:13:16;;;;;;;8.52;3.40;;;;;;;7.39;88.70;99013.00;4411569;32;20085;-75
2020/12/13 11:15:43;;;;;;;12.37;2.80;;;;;;;7.64;88.42;99004.44;4416944;32;20049;-73
2020/12/13 11:18:09;;;;;;;6.55;2.22;;;;;;;7.68;88.01;99002.25;4415247;32;20076;-72
2020/12/13 11:20:34;;;;;;;6.10;2.40;;;;;;;7.66;88.22;98980.31;4408873;32;20089;-74
2020/12/13 11:23:00;;;;;;;5.12;2.15;;;;;;;7.63;88.00;98977.66;4407369;32;20147;-75
2020/12/13 11:25:25;;;;;;;7.25;2.40;;;;;;;7.64;88.63;98977.19;4407390;32;20091;-73
2020/12/13 11:27:51;;;;;;;6.53;2.30;;;;;;;7.67;88.74;98955.91;4403438;32;20103;-75
2020/12/13 11:30:17;;;;;;;6.78;2.33;;;;;;;7.71;88.39;98942.53;4405367;32;20073;-76
2020/12/13 11:32:44;;;;;;;6.28;2.45;;;;;;;7.65;88.33;98936.78;4408621;32;20324;-72
2020/12/13 11:35:11;;;;;;;8.35;2.28;;;;;;;7.40;89.68;98925.03;4405880;32;20038;-73
2020/12/13 11:37:37;;;;;;;8.10;2.53;;;;;;;7.62;89.33;98911.72;4403603;32;20483;-75
2020/12/13 11:40:03;;;;;;;8.80;2.85;;;;;;;7.61;89.51;98902.53;4406763;32;20069;-74
2020/12/13 11:42:29;;;;;;;7.45;2.65;;;;;;;7.59;89.26;98893.84;4402016;32;20139;-74
2020/12/13 11:44:55;;;;;;;5.82;2.25;;;;;;;7.66;88.52;98903.94;4403997;32;20073;-76
2020/12/13 11:47:21;;;;;;;6.37;2.40;;;;;;;7.75;88.42;98884.38;4406099;32;20096;-74
2020/12/13 11:49:46;;;;;;;5.32;2.40;;;;;;;7.72;88.61;98894.50;4401602;32;20089;-77
2020/12/13 11:52:12;;;;;;;7.95;2.05;;;;;;;7.63;88.20;98876.88;4403123;32;20151;-76
2020/12/13 11:54:37;;;;;;;8.65;1.90;;;;;;;7.65;88.89;98866.81;4403730;32;20082;-75
2020/12/13 11:57:04;;;;;;;8.05;2.40;;;;;;;7.76;88.58;98852.31;4405787;32;20113;-75
2020/12/13 11:59:29;;;;;;;6.55;1.80;;;;;;;7.76;88.33;98852.31;4407059;32;20075;-73
2020/12/13 12:01:56;;;;;;;6.25;2.05;;;;;;;7.66;88.83;98834.75;4406156;32;20090;-75